Aérodrome :
LOGIN :

S'inscrire | Disclaimer

   EN    FR    IT 

 










Légende :    VFR   VFR Marginal   IFR   IFR Intensif   IFR Très Intensif
Visi : 
Plafond : 
>= 8 km
>= 3000ft
5 à 8 km
1000 à 3000 ft
1500m à 5 km
500 à 1000 ft
800 à 1500m
200 à 500 ft
< 800m
< 200 ft
Symboles :   Orages  Brouillard  Fortes neiges  Fortes précipitations  Vent > 20 kt
SIGMETs :   Divers  Orages  Givrage  Turbulence  Onde Orograph.  Cendres Volcan.






- Altitude de l'aérodrome : 200 ft
- Code IATA : TCE


LRTC - Tulcea

DERNIER METAR :
  • 291330Z AUTO 34007KT 9999 FEW050/// SCT065/// 08/01 Q1017

METARs EXPIRÉS :
  • 291300Z AUTO 33012KT 9999 FEW032/// BKN055/// 09/02 Q1017
  • 291230Z AUTO 33008KT 290V360 9999 FEW070/// 10/00 Q1017
  • 291200Z AUTO 34006KT 280V050 9999 FEW029/// 10/01 Q1017
  • 291130Z AUTO 35004KT 260V050 9999 FEW035/// BKN055/// 09/01 Q1017
  • 291100Z AUTO 32006KT 290V360 9999 FEW021/// BKN055/// 08/02 Q1017

Prévision TAF périmée.



MET'MAP, la Météo Aéronautique d'un coup d'oeil ! - Copyright ORBIFLY Décembre 2007 - Disclaimer

ORBIFLY MET'MAP TEAM :

Programmation & Développement : Alexandra Zaïnal
Sur une idée originale de : Baudouin d'Aumeries
Assistance à la programmation : Marc-Olivier Méhu
Soutien technique & logistique : Manuel Goepfert

Contact : metmap@orbifly.com




SOURCES & CREDITS :

   NOAA